London Luton Airport

Airport
ICAO code: 
EGGW
IATA Code: 
LTN
Summary
ICAO Region: 
EUR
Territory: 
Location: 
Luton, Bedfordshire,
Serving: 
Luton
Elevation: 
526 ft
Coordinates: 
Aerial View: 
51° 52' 31.104" N, 0° 22' 9.998" W
Metar
Observation
EGGW 262350Z AUTO 25017KT 9999 NCD 06/03 Q1026
Station
Luton Airport
Date/Time
2022-01-26 23:50:00
Wind direction
250°
Wind speed
17 kts
Lowest cloud amount
no clouds detected
Temperature
6°C
Dew point
3°C
Humidity
81%
QNH
1026 hPa
Weather condition
n/a

Description

International airport with scheduled and business traffic.

Climatology

Temperate Marine climate/Oceanic climate (Köppen climate classification Cfb). Moderately cool summer and comparatively warm winter with a temperature range of only 14°C. Prevailing south-westerly winds.

Runways

Designator Length Width Surface Rops
8/26 2160 46 ASP Yes/Yes
Airport map: 
Aerial View: 

Accidents and Serious Incidents at or in the vicinity of EGGW

SKYbrary Partners:

Safety knowledge contributed by: